Time;durP1;ratioP1;P1;durP2;ratioP2;P2;SDS_P1;SDS_P2;PMS_P1;PMS_P2;Temp;Humidity;BMP_temperature;BMP_pressure;BME280_temperature;BME280_humidity;BME280_pressure;Samples;Min_cycle;Max_cycle;Signal;HPM_P1;HPM_P2
2022/10/31 05:01:30;;;;;;;1999.90;999.90;;;9.90;99.90;;;;;;5489701;23;20050;-79
2022/10/31 05:03:56;;;;;;;1999.90;999.90;;;10.00;99.90;;;;;;5000275;28;20488;-79
2022/10/31 05:06:21;;;;;;;1999.90;999.90;;;10.00;99.90;;;;;;5003047;28;20045;-79
2022/10/31 05:08:47;;;;;;;1999.90;999.90;;;10.00;99.90;;;;;;5003136;28;20039;-79
2022/10/31 05:11:12;;;;;;;1999.90;999.90;;;10.00;99.90;;;;;;5000745;28;20031;-79
2022/10/31 05:13:38;;;;;;;1999.90;999.90;;;10.00;99.90;;;;;;5025508;23;20061;-79
2022/10/31 05:16:04;;;;;;;1999.90;999.90;;;10.00;99.90;;;;;;4998328;28;20403;-79
2022/10/31 05:18:29;;;;;;;1999.90;999.90;;;10.00;99.90;;;;;;4998639;28;20089;-80
2022/10/31 05:20:55;;;;;;;1999.90;999.90;;;10.00;99.90;;;;;;4998688;28;20400;-79
2022/10/31 05:23:20;;;;;;;1999.90;999.90;;;10.10;99.90;;;;;;4996857;28;20031;-79
2022/10/31 05:25:46;;;;;;;1999.90;999.90;;;10.00;99.90;;;;;;4996743;28;20062;-79
2022/10/31 05:28:11;;;;;;;1999.90;999.90;;;10.10;99.90;;;;;;4998319;28;20039;-80
2022/10/31 05:30:37;;;;;;;1999.90;999.90;;;10.00;99.90;;;;;;4998727;28;20042;-81
2022/10/31 05:33:03;;;;;;;1999.90;999.90;;;10.00;99.90;;;;;;4999985;28;20035;-81
2022/10/31 05:35:30;;;;;;;1999.90;999.90;;;10.00;99.90;;;;;;4998164;28;20038;-81
2022/10/31 05:37:57;;;;;;;1999.90;999.90;;;10.00;99.90;;;;;;5001321;28;20046;-81
2022/10/31 05:40:24;;;;;;;1999.90;999.90;;;9.90;99.90;;;;;;5001726;28;20530;-81
2022/10/31 05:42:54;;;;;;;1999.90;999.90;;;10.00;99.90;;;;;;5001368;28;20516;-81
2022/10/31 05:45:21;;;;;;;1999.90;999.90;;;9.90;99.90;;;;;;5000178;28;20067;-81
2022/10/31 05:47:54;;;;;;;1999.90;999.90;;;9.90;99.90;;;;;;4997098;28;20460;-80
2022/10/31 05:50:20;;;;;;;1999.90;999.90;;;9.90;99.90;;;;;;4996812;28;20125;-80
2022/10/31 05:52:46;;;;;;;1999.90;999.90;;;9.90;99.90;;;;;;4997952;28;20079;-80
2022/10/31 05:55:11;;;;;;;1999.90;999.90;;;9.90;99.90;;;;;;4995791;28;20030;-80
2022/10/31 05:57:37;;;;;;;1999.90;999.90;;;9.90;99.90;;;;;;4997656;28;20493;-80
2022/10/31 06:00:04;;;;;;;1999.90;999.90;;;9.80;99.90;;;;;;4997432;28;20191;-80
2022/10/31 06:02:34;;;;;;;1999.90;999.90;;;9.80;99.90;;;;;;4996110;28;20033;-81
2022/10/31 06:05:00;;;;;;;1999.90;999.90;;;9.80;99.90;;;;;;4996998;28;20131;-81
2022/10/31 06:07:26;;;;;;;1999.90;999.90;;;9.70;99.90;;;;;;4997595;28;20125;-81
2022/10/31 06:09:51;;;;;;;1999.90;999.90;;;9.60;99.90;;;;;;4995098;28;20520;-81
2022/10/31 06:12:17;;;;;;;1999.90;999.90;;;9.50;99.90;;;;;;4996965;28;20035;-80
2022/10/31 06:14:42;;;;;;;1999.90;999.90;;;9.40;99.90;;;;;;4996639;28;20050;-81
2022/10/31 06:17:08;;;;;;;1999.90;999.90;;;9.40;99.90;;;;;;4997473;28;20066;-81
2022/10/31 06:19:33;;;;;;;1999.90;999.90;;;9.40;99.90;;;;;;4997254;28;20074;-81
2022/10/31 06:21:59;;;;;;;1999.90;999.90;;;9.30;99.90;;;;;;4998095;28;20106;-78
2022/10/31 06:24:25;;;;;;;1999.90;999.90;;;9.20;99.90;;;;;;4998504;28;20388;-79
2022/10/31 06:26:50;;;;;;;1999.90;999.90;;;9.30;99.90;;;;;;4997486;28;20484;-78
2022/10/31 06:29:16;;;;;;;1999.90;999.90;;;9.30;99.90;;;;;;4996930;28;20039;-78
2022/10/31 06:31:41;;;;;;;1999.90;999.90;;;9.20;99.90;;;;;;4997188;28;20081;-80
2022/10/31 06:34:07;;;;;;;1999.90;999.90;;;9.20;99.90;;;;;;4997064;28;20043;-79
2022/10/31 06:36:32;;;;;;;1999.90;999.90;;;9.10;99.90;;;;;;4996494;28;20441;-79
2022/10/31 06:38:58;;;;;;;1999.90;999.90;;;9.20;99.90;;;;;;4996794;28;20493;-80
2022/10/31 06:41:23;;;;;;;1999.90;999.90;;;9.20;99.90;;;;;;4995482;28;20520;-79
2022/10/31 06:43:49;;;;;;;1999.90;999.90;;;9.20;99.90;;;;;;4996738;28;20467;-78
2022/10/31 06:46:14;;;;;;;1999.90;999.90;;;9.20;99.90;;;;;;4997697;28;20567;-79
2022/10/31 06:48:41;;;;;;;1999.90;999.90;;;9.20;99.90;;;;;;4996908;28;20081;-78
2022/10/31 06:51:07;;;;;;;1999.90;999.90;;;9.30;99.90;;;;;;4999423;28;20082;-81
2022/10/31 06:53:33;;;;;;;1999.90;999.90;;;9.40;99.90;;;;;;5001943;28;20473;-83
2022/10/31 06:55:58;;;;;;;1999.90;999.90;;;9.40;99.90;;;;;;4997873;28;20517;-80
2022/10/31 06:58:24;;;;;;;1999.90;999.90;;;9.40;99.90;;;;;;4997338;28;20054;-79
2022/10/31 07:00:50;;;;;;;1999.90;999.90;;;9.40;99.90;;;;;;4997879;28;20110;-81
2022/10/31 07:03:16;;;;;;;1999.90;999.90;;;9.50;99.90;;;;;;4998628;28;20043;-79
2022/10/31 07:05:42;;;;;;;1999.90;999.90;;;9.60;99.90;;;;;;4998967;28;20504;-80
2022/10/31 07:08:11;;;;;;;1999.90;999.90;;;9.70;99.90;;;;;;4999707;28;20046;-81
2022/10/31 07:10:39;;;;;;;1999.90;999.90;;;9.80;99.90;;;;;;4997975;28;20026;-80
2022/10/31 07:13:06;;;;;;;1999.90;999.90;;;9.90;99.90;;;;;;4998397;28;20121;-80
2022/10/31 07:15:37;;;;;;;1999.90;999.90;;;9.90;99.90;;;;;;4997269;28;20826;-78
2022/10/31 07:18:05;;;;;;;1999.90;999.90;;;9.80;99.90;;;;;;4999550;28;20035;-79
2022/10/31 07:20:31;;;;;;;1999.90;999.90;;;9.80;99.90;;;;;;4996356;28;20093;-78
2022/10/31 07:22:57;;;;;;;1999.90;999.90;;;9.80;99.90;;;;;;5011443;28;20094;-80
2022/10/31 07:25:23;;;;;;;1999.90;999.90;;;9.80;99.90;;;;;;5020499;28;20030;-78
2022/10/31 07:27:48;;;;;;;1999.90;999.90;;;9.90;99.90;;;;;;4998070;28;20046;-78
2022/10/31 07:30:14;;;;;;;1999.90;999.90;;;9.90;99.90;;;;;;4995777;28;20075;-78
2022/10/31 07:32:41;;;;;;;1999.90;999.90;;;9.90;99.90;;;;;;4995696;28;20066;-78
2022/10/31 07:35:09;;;;;;;1999.90;999.90;;;9.90;99.90;;;;;;4995177;28;20039;-78
2022/10/31 07:37:35;;;;;;;1999.90;999.90;;;9.90;99.90;;;;;;4997041;28;20035;-82
2022/10/31 07:40:01;;;;;;;1999.90;999.90;;;9.90;99.90;;;;;;4997148;28;20485;-84
2022/10/31 07:42:27;;;;;;;1999.90;999.90;;;9.90;99.90;;;;;;4997698;28;20126;-79
2022/10/31 07:44:52;;;;;;;1999.90;999.90;;;9.80;99.90;;;;;;4995907;28;20050;-77
2022/10/31 07:47:18;;;;;;;1999.90;999.90;;;9.90;99.90;;;;;;4995536;28;20033;-77
2022/10/31 07:49:43;;;;;;;1999.90;999.90;;;9.90;99.90;;;;;;4995509;28;20049;-77
2022/10/31 07:52:09;;;;;;;1999.90;999.90;;;10.00;99.90;;;;;;4996285;28;20030;-77
2022/10/31 07:54:34;;;;;;;1999.90;999.90;;;10.10;99.90;;;;;;4995066;28;20072;-77
2022/10/31 07:57:00;;;;;;;1999.90;999.90;;;10.20;99.90;;;;;;4995281;28;20031;-77
2022/10/31 07:59:27;;;;;;;1999.90;999.90;;;10.20;99.90;;;;;;4995454;28;20034;-77
2022/10/31 08:01:52;;;;;;;1999.90;999.90;;;10.20;99.90;;;;;;4995519;28;20062;-77
2022/10/31 08:04:18;;;;;;;1999.90;999.90;;;10.30;99.90;;;;;;4994974;28;20126;-78
2022/10/31 08:06:44;;;;;;;1999.90;999.90;;;10.40;99.90;;;;;;4995217;28;20046;-77
2022/10/31 08:09:09;;;;;;;1999.90;999.90;;;10.40;99.90;;;;;;4995219;28;20039;-77
2022/10/31 08:11:35;;;;;;;1999.90;999.90;;;10.50;99.90;;;;;;4995048;28;20027;-79
2022/10/31 08:14:00;;;;;;;1999.90;999.90;;;10.50;99.90;;;;;;4994464;28;20056;-76
2022/10/31 08:16:26;;;;;;;1999.90;999.90;;;10.50;99.90;;;;;;4995076;28;20026;-77
2022/10/31 08:18:55;;;;;;;1999.90;999.90;;;10.50;99.90;;;;;;4994961;28;20089;-77
2022/10/31 08:21:21;;;;;;;1999.90;999.90;;;10.60;99.90;;;;;;4994769;28;20030;-77
2022/10/31 08:23:46;;;;;;;1999.90;999.90;;;10.60;99.90;;;;;;4994737;28;20031;-77
2022/10/31 08:26:12;;;;;;;1999.90;999.90;;;10.50;99.90;;;;;;4995526;28;20038;-77
2022/10/31 08:28:37;;;;;;;1999.90;999.90;;;10.70;99.90;;;;;;4997942;28;20034;-78
2022/10/31 08:31:03;;;;;;;1999.90;999.90;;;10.70;99.90;;;;;;4998261;28;20043;-76
2022/10/31 08:33:28;;;;;;;1999.90;999.90;;;10.60;99.90;;;;;;4996301;28;20043;-79
2022/10/31 08:35:54;;;;;;;1999.90;999.90;;;10.40;99.90;;;;;;4997784;28;20031;-78
2022/10/31 08:38:20;;;;;;;1999.90;999.90;;;10.50;99.90;;;;;;4997959;28;20061;-77
2022/10/31 08:40:48;;;;;;;1999.90;999.90;;;10.60;99.90;;;;;;4998163;28;20035;-77
2022/10/31 08:43:15;;;;;;;1999.90;999.90;;;10.80;99.90;;;;;;4997867;28;20166;-77
2022/10/31 08:45:42;;;;;;;1999.90;999.90;;;11.00;99.90;;;;;;4997572;28;20245;-77
2022/10/31 08:48:13;;;;;;;1999.90;999.90;;;11.40;99.90;;;;;;4997694;28;20488;-78
2022/10/31 08:50:39;;;;;;;1999.90;999.90;;;11.30;99.90;;;;;;4998044;28;20034;-77
2022/10/31 08:53:09;;;;;;;1999.90;999.90;;;11.30;99.90;;;;;;4998729;28;20090;-78
2022/10/31 08:55:35;;;;;;;1999.90;999.90;;;11.50;99.90;;;;;;5000505;28;20094;-80
2022/10/31 08:58:02;;;;;;;1999.90;999.90;;;11.70;99.90;;;;;;4999780;28;20134;-77
2022/10/31 09:00:28;;;;;;;1999.90;999.90;;;11.70;99.90;;;;;;4999349;28;20090;-78
2022/10/31 09:02:58;;;;;;;1999.90;999.90;;;11.80;99.90;;;;;;4998527;28;20087;-79
2022/10/31 09:05:24;;;;;;;1999.90;999.90;;;11.90;99.90;;;;;;4998511;28;20031;-78
2022/10/31 09:07:50;;;;;;;1999.90;999.90;;;12.00;99.90;;;;;;4997943;28;20494;-77
2022/10/31 09:10:16;;;;;;;1999.90;999.90;;;11.90;99.90;;;;;;4998056;28;20031;-77
2022/10/31 09:12:41;;;;;;;1999.90;999.90;;;11.90;99.90;;;;;;4999045;28;20062;-78
2022/10/31 09:15:07;;;;;;;1999.90;999.90;;;11.90;99.90;;;;;;4997756;28;20050;-78
2022/10/31 09:17:33;;;;;;;1999.90;999.90;;;11.90;99.90;;;;;;4999180;28;20039;-78
2022/10/31 09:19:58;;;;;;;1999.90;999.90;;;12.10;99.90;;;;;;5000668;28;20034;-78
2022/10/31 09:22:24;;;;;;;1999.90;999.90;;;12.10;99.90;;;;;;4998648;28;20030;-79
2022/10/31 09:24:49;;;;;;;1999.90;999.90;;;12.20;99.90;;;;;;4999660;28;20077;-78
2022/10/31 09:27:15;;;;;;;1999.90;999.90;;;12.30;99.90;;;;;;5000372;28;20117;-78
2022/10/31 09:29:40;;;;;;;1999.90;999.90;;;12.30;99.90;;;;;;4998666;28;20042;-78
2022/10/31 09:32:06;;;;;;;1999.90;999.90;;;12.40;99.90;;;;;;5000218;28;20069;-78
2022/10/31 09:34:32;;;;;;;1999.90;999.90;;;12.50;99.90;;;;;;4999716;28;20034;-78
2022/10/31 09:36:57;;;;;;;1999.90;999.90;;;12.50;99.90;;;;;;5000390;28;20401;-78
2022/10/31 09:39:23;;;;;;;1999.90;999.90;;;12.50;99.90;;;;;;5000477;28;20043;-78
2022/10/31 09:42:19;;;;;;;1999.90;999.90;;;12.70;99.90;;;;;;5000872;28;20035;-77
2022/10/31 09:45:08;;;;;;;1999.90;999.90;;;12.80;99.90;;;;;;4998511;28;20588;-79
2022/10/31 09:47:40;;;;;;;1999.90;999.90;;;12.70;99.90;;;;;;4998798;28;20047;-80
2022/10/31 09:50:17;;;;;;;1999.90;999.90;;;12.90;99.90;;;;;;5000809;28;20575;-78
2022/10/31 09:52:53;;;;;;;1999.90;999.90;;;13.00;99.90;;;;;;4999024;28;20046;-79
2022/10/31 09:55:52;;;;;;;1999.90;999.90;;;13.20;99.90;;;;;;5000221;28;20089;-79
2022/10/31 09:58:27;;;;;;;1999.90;999.90;;;13.40;99.90;;;;;;4976974;28;20039;-78
2022/10/31 10:00:56;;;;;;;1999.90;999.90;;;13.50;99.90;;;;;;4980388;28;20044;-78
2022/10/31 10:03:45;;;;;;;1999.90;999.90;;;13.70;99.90;;;;;;4980406;28;20039;-78
2022/10/31 10:06:21;;;;;;;1999.90;999.90;;;13.80;99.90;;;;;;4980650;28;20064;-78
2022/10/31 10:08:46;;;;;;;1999.90;999.90;;;13.90;99.90;;;;;;4979308;28;20035;-78
2022/10/31 10:11:42;;;;;;;1999.90;999.90;;;13.90;99.90;;;;;;4979942;28;20039;-78
2022/10/31 10:14:32;;;;;;;1999.90;999.90;;;14.00;99.90;;;;;;4979169;28;20114;-78
2022/10/31 10:17:10;;;;;;;1999.90;999.90;;;14.10;99.90;;;;;;4979352;28;20513;-78
2022/10/31 10:20:03;;;;;;;1999.90;999.90;;;14.20;99.90;;;;;;5009404;28;20023;-78
2022/10/31 10:22:40;;;;;;;1999.90;999.90;;;14.30;99.90;;;;;;5016822;28;20045;-78
2022/10/31 10:25:34;;;;;;;1999.90;999.90;;;14.10;99.90;;;;;;4997522;28;20049;-78
2022/10/31 10:28:23;;;;;;;1999.90;999.90;;;14.10;99.90;;;;;;4995788;28;20043;-78
2022/10/31 10:31:11;;;;;;;1999.90;999.90;;;14.10;99.90;;;;;;4997862;28;20035;-78
2022/10/31 10:33:50;;;;;;;1999.90;999.90;;;14.10;99.90;;;;;;4997384;28;20051;-78
2022/10/31 10:36:26;;;;;;;1999.90;999.90;;;14.10;99.90;;;;;;4997590;28;20039;-78
2022/10/31 10:38:59;;;;;;;1999.90;999.90;;;14.20;99.90;;;;;;4998359;28;20524;-78
2022/10/31 10:41:30;;;;;;;1999.90;999.90;;;14.30;99.90;;;;;;4997820;28;20046;-78
2022/10/31 10:43:56;;;;;;;1999.90;999.90;;;14.30;99.90;;;;;;4996562;28;20034;-78
2022/10/31 10:49:50;;;;;;;1999.90;999.90;;;14.50;99.90;;;;;;4994885;28;20051;-78
2022/10/31 10:52:59;;;;;;;1999.90;999.90;;;14.60;99.90;;;;;;4998286;28;20050;-78
2022/10/31 10:55:40;;;;;;;1999.90;999.90;;;14.40;99.90;;;;;;4988845;28;20101;-78
2022/10/31 10:58:10;;;;;;;1999.90;999.90;;;14.50;99.90;;;;;;4997912;28;20042;-78
2022/10/31 11:00:40;;;;;;;1999.90;999.90;;;14.40;99.90;;;;;;4997488;28;20130;-78
2022/10/31 11:03:07;;;;;;;1999.90;999.90;;;14.50;99.90;;;;;;4998222;28;20207;-78
2022/10/31 11:05:58;;;;;;;1999.90;999.90;;;14.40;99.90;;;;;;4997860;28;20061;-79
2022/10/31 11:08:28;;;;;;;1999.90;999.90;;;14.70;99.90;;;;;;4997913;28;20493;-79
2022/10/31 11:11:00;;;;;;;1999.90;999.90;;;15.00;99.90;;;;;;4997847;28;20038;-79
2022/10/31 11:13:27;;;;;;;1999.90;999.90;;;15.20;99.90;;;;;;4977247;28;20039;-79
2022/10/31 11:16:07;;;;;;;1999.90;999.90;;;15.40;99.90;;;;;;4976733;28;20038;-76
2022/10/31 11:18:39;;;;;;;1999.90;999.90;;;15.50;99.90;;;;;;4976078;28;20094;-77
2022/10/31 11:21:05;;;;;;;1999.90;999.90;;;15.50;99.90;;;;;;4975807;28;20098;-77
2022/10/31 11:23:32;;;;;;;1999.90;999.90;;;15.60;99.90;;;;;;4975739;28;20083;-77
2022/10/31 11:26:00;;;;;;;1999.90;999.90;;;15.60;99.90;;;;;;4976613;28;20027;-79
2022/10/31 11:28:32;;;;;;;1999.90;999.90;;;15.70;99.90;;;;;;4975829;28;20035;-77
2022/10/31 11:31:00;;;;;;;1999.90;999.90;;;15.70;99.90;;;;;;4976138;28;20146;-78
2022/10/31 11:33:36;;;;;;;1999.90;999.90;;;15.90;99.90;;;;;;4975484;28;20094;-77
2022/10/31 11:36:13;;;;;;;1999.90;999.90;;;16.00;99.90;;;;;;4976876;28;20043;-78
2022/10/31 11:38:42;;;;;;;1999.90;999.90;;;16.20;99.90;;;;;;4976199;28;20035;-76
2022/10/31 11:41:13;;;;;;;1999.90;999.90;;;16.20;99.90;;;;;;4975754;28;20031;-75
2022/10/31 11:43:45;;;;;;;1999.90;999.90;;;16.40;99.90;;;;;;4975468;28;20437;-75
2022/10/31 11:46:22;;;;;;;1999.90;999.90;;;16.60;99.90;;;;;;4976862;28;20038;-77
2022/10/31 11:48:50;;;;;;;1999.90;999.90;;;16.60;99.90;;;;;;4975370;28;20039;-75
2022/10/31 11:51:26;;;;;;;1999.90;999.90;;;16.60;99.90;;;;;;4974364;28;20036;-75
2022/10/31 11:53:54;;;;;;;1999.90;999.90;;;16.80;99.90;;;;;;4975220;28;20046;-77
2022/10/31 11:56:20;;;;;;;1999.90;999.90;;;16.80;99.90;;;;;;4975157;28;20106;-76
2022/10/31 11:59:04;;;;;;;1999.90;999.90;;;16.80;99.90;;;;;;4975639;28;20114;-77
2022/10/31 12:01:32;;;;;;;1999.90;999.90;;;16.70;99.90;;;;;;4973457;28;20086;-77
2022/10/31 12:04:08;;;;;;;1999.90;999.90;;;16.80;99.90;;;;;;4975273;28;20042;-75
2022/10/31 12:06:39;;;;;;;1999.90;999.90;;;16.90;99.90;;;;;;4975511;28;20494;-75
2022/10/31 12:09:20;;;;;;;1999.90;999.90;;;16.70;99.90;;;;;;4975481;28;20174;-76
2022/10/31 12:11:54;;;;;;;1999.90;999.90;;;16.70;99.90;;;;;;4975200;28;20028;-75
2022/10/31 12:14:26;;;;;;;1999.90;999.90;;;16.80;99.90;;;;;;4974274;28;20047;-75
2022/10/31 12:17:24;;;;;;;1999.90;999.90;;;16.90;99.90;;;;;;4975199;28;20039;-75
2022/10/31 12:20:11;;;;;;;1999.90;999.90;;;16.80;99.90;;;;;;4975524;28;20036;-75
2022/10/31 12:23:06;;;;;;;1999.90;999.90;;;17.20;99.90;;;;;;4973494;28;20032;-75
2022/10/31 12:25:42;;;;;;;1999.90;999.90;;;17.20;99.90;;;;;;4974788;28;20039;-78
2022/10/31 12:28:32;;;;;;;1999.90;999.90;;;17.20;99.90;;;;;;4974891;28;20035;-79
2022/10/31 12:30:57;;;;;;;1999.90;999.90;;;17.20;99.90;;;;;;4974906;28;20032;-79
2022/10/31 12:33:34;;;;;;;1999.90;999.90;;;17.10;99.90;;;;;;4974942;28;20048;-79
2022/10/31 12:36:03;;;;;;;1999.90;999.90;;;17.00;99.90;;;;;;4973423;28;20502;-78
2022/10/31 12:38:42;;;;;;;1999.90;999.90;;;17.20;99.90;;;;;;4974842;28;20469;-79
2022/10/31 12:41:26;;;;;;;1999.90;999.90;;;17.50;99.90;;;;;;4975263;28;20079;-78
2022/10/31 12:43:57;;;;;;;1999.90;999.90;;;17.80;99.90;;;;;;4973785;28;20090;-79
2022/10/31 12:46:53;;;;;;;1999.90;999.90;;;17.80;99.90;;;;;;4974829;28;20038;-79
2022/10/31 12:49:47;;;;;;;1999.90;999.90;;;17.70;99.90;;;;;;4974283;28;20126;-79
2022/10/31 12:52:21;;;;;;;1999.90;999.90;;;17.40;99.90;;;;;;4974720;28;20061;-79
2022/10/31 12:55:15;;;;;;;1999.90;999.90;;;17.30;99.90;;;;;;4974565;28;20035;-79
2022/10/31 12:57:46;;;;;;;1999.90;999.90;;;17.60;99.90;;;;;;4975155;28;20057;-78
2022/10/31 13:00:18;;;;;;;1999.90;999.90;;;17.70;99.90;;;;;;4974474;28;20536;-79
2022/10/31 13:02:56;;;;;;;1999.90;999.90;;;17.80;99.90;;;;;;4975097;28;20046;-79
2022/10/31 13:05:29;;;;;;;1999.90;999.90;;;17.90;99.90;;;;;;4974953;28;20548;-79
2022/10/31 13:08:06;;;;;;;1999.90;999.90;;;18.10;99.90;;;;;;4976202;28;20108;-77
2022/10/31 13:10:34;;;;;;;1999.90;999.90;;;17.90;99.90;;;;;;4976524;28;20036;-77
2022/10/31 13:13:13;;;;;;;1999.90;999.90;;;17.80;99.90;;;;;;4986333;28;20509;-77
2022/10/31 13:15:56;;;;;;;1999.90;999.90;;;18.00;99.90;;;;;;4998923;28;20031;-77
2022/10/31 13:18:39;;;;;;;1999.90;999.90;;;18.00;99.90;;;;;;4978560;28;20035;-77
2022/10/31 13:21:11;;;;;;;1999.90;999.90;;;17.90;99.90;;;;;;4977954;28;20094;-77
2022/10/31 13:23:39;;;;;;;1999.90;999.90;;;17.80;99.90;;;;;;4977805;28;20035;-77
2022/10/31 13:26:11;;;;;;;1999.90;999.90;;;17.80;99.90;;;;;;4977637;28;20043;-77
2022/10/31 13:28:59;;;;;;;1999.90;999.90;;;17.80;99.90;;;;;;4977799;28;20059;-77
2022/10/31 13:31:25;;;;;;;1999.90;999.90;;;17.80;99.90;;;;;;4977763;28;20035;-77
2022/10/31 13:34:08;;;;;;;1999.90;999.90;;;17.70;99.90;;;;;;4977340;28;20044;-77
2022/10/31 13:36:44;;;;;;;1999.90;999.90;;;17.50;99.90;;;;;;4977941;28;20426;-77
2022/10/31 13:39:47;;;;;;;1999.90;999.90;;;17.30;99.90;;;;;;4977855;28;20066;-77
2022/10/31 13:42:29;;;;;;;1999.90;999.90;;;17.30;99.90;;;;;;4977649;28;20482;-77
2022/10/31 13:44:55;;;;;;;1999.90;999.90;;;17.30;99.90;;;;;;4977064;28;20039;-77
2022/10/31 13:47:28;;;;;;;1999.90;999.90;;;17.30;99.90;;;;;;4975963;28;20040;-78
2022/10/31 13:50:20;;;;;;;1999.90;999.90;;;17.30;99.90;;;;;;4976026;28;20035;-78
2022/10/31 13:52:46;;;;;;;1999.90;999.90;;;17.40;99.90;;;;;;4977915;28;20035;-78
2022/10/31 13:55:35;;;;;;;1999.90;999.90;;;17.40;99.90;;;;;;4975436;28;20068;-77
2022/10/31 13:58:24;;;;;;;1999.90;999.90;;;17.50;99.90;;;;;;4977069;28;20035;-77
2022/10/31 14:01:14;;;;;;;1999.90;999.90;;;17.60;99.90;;;;;;4977945;28;20040;-78
2022/10/31 14:03:42;;;;;;;1999.90;999.90;;;17.70;99.90;;;;;;4978403;28;20027;-78
2022/10/31 14:06:10;;;;;;;1999.90;999.90;;;17.80;99.90;;;;;;4976666;28;20050;-78
2022/10/31 14:08:39;;;;;;;1999.90;999.90;;;17.90;99.90;;;;;;4977053;28;20489;-78
2022/10/31 14:11:08;;;;;;;1999.90;999.90;;;18.30;99.90;;;;;;4976695;28;20035;-78
2022/10/31 14:13:43;;;;;;;1999.90;999.90;;;18.40;99.90;;;;;;4976438;28;20619;-78
2022/10/31 14:16:24;;;;;;;1999.90;999.90;;;18.60;99.90;;;;;;4976493;28;20071;-78
2022/10/31 14:19:14;;;;;;;1999.90;999.90;;;18.70;99.90;;;;;;4976975;28;20035;-78
2022/10/31 14:21:45;;;;;;;1999.90;999.90;;;18.80;99.90;;;;;;4975359;28;20035;-79
2022/10/31 14:24:25;;;;;;;1999.90;999.90;;;19.00;99.90;;;;;;4974956;28;20122;-78
2022/10/31 14:27:01;;;;;;;1999.90;999.90;;;19.10;99.90;;;;;;4976785;28;20049;-79
2022/10/31 14:29:31;;;;;;;1999.90;999.90;;;18.90;99.90;;;;;;4976647;28;20157;-78
2022/10/31 14:32:13;;;;;;;1999.90;999.90;;;18.90;99.90;;;;;;4976636;28;20036;-78
2022/10/31 14:34:55;;;;;;;1999.90;999.90;;;18.70;99.90;;;;;;4974698;28;20039;-78
2022/10/31 14:37:55;;;;;;;1999.90;999.90;;;18.40;99.90;;;;;;4976501;28;20031;-78
2022/10/31 14:40:41;;;;;;;1999.90;999.90;;;18.10;99.90;;;;;;4976756;28;20520;-78
2022/10/31 14:43:35;;;;;;;1999.90;999.90;;;17.60;99.90;;;;;;4976726;28;20034;-78
2022/10/31 14:46:29;;;;;;;1999.90;999.90;;;17.30;99.90;;;;;;4976342;28;20480;-78
2022/10/31 14:49:12;;;;;;;1999.90;999.90;;;17.00;99.90;;;;;;4977493;28;20042;-78
2022/10/31 14:51:47;;;;;;;1999.90;999.90;;;16.70;99.90;;;;;;4976478;28;20078;-78
2022/10/31 14:54:19;;;;;;;1999.90;999.90;;;16.50;99.90;;;;;;4977297;28;20555;-78
2022/10/31 14:56:56;;;;;;;1999.90;999.90;;;16.20;99.90;;;;;;4975863;28;20527;-78
2022/10/31 14:59:28;;;;;;;1999.90;999.90;;;16.20;99.90;;;;;;4977327;28;20109;-78
2022/10/31 15:02:01;;;;;;;1999.90;999.90;;;16.10;99.90;;;;;;4976407;28;20038;-78
2022/10/31 15:04:29;;;;;;;1999.90;999.90;;;16.00;99.90;;;;;;4976015;28;20031;-78
2022/10/31 15:07:15;;;;;;;1999.90;999.90;;;16.00;99.90;;;;;;4974553;28;20043;-78
2022/10/31 15:09:43;;;;;;;1999.90;999.90;;;16.00;99.90;;;;;;4976175;28;20051;-77
2022/10/31 15:12:27;;;;;;;1999.90;999.90;;;16.00;99.90;;;;;;4975034;28;20535;-79
2022/10/31 15:14:53;;;;;;;1999.90;999.90;;;16.00;99.90;;;;;;4975342;28;20039;-78
2022/10/31 15:17:20;;;;;;;1999.90;999.90;;;16.00;99.90;;;;;;4976052;28;20378;-78
2022/10/31 15:19:46;;;;;;;1999.90;999.90;;;15.90;99.90;;;;;;4975653;28;20485;-78
2022/10/31 15:22:16;;;;;;;1999.90;999.90;;;16.00;99.90;;;;;;4976036;28;20046;-78
2022/10/31 15:24:42;;;;;;;1999.90;999.90;;;15.70;99.90;;;;;;4975237;28;20035;-79
2022/10/31 15:27:17;;;;;;;1999.90;999.90;;;15.80;99.90;;;;;;4976044;28;20031;-78
2022/10/31 15:29:50;;;;;;;1999.90;999.90;;;15.70;99.90;;;;;;4975650;28;20545;-78
2022/10/31 15:32:36;;;;;;;1999.90;999.90;;;15.60;99.90;;;;;;4975789;28;20034;-78
2022/10/31 15:35:09;;;;;;;1999.90;999.90;;;15.60;99.90;;;;;;4975155;28;20051;-78
2022/10/31 15:37:34;;;;;;;1999.90;999.90;;;15.50;99.90;;;;;;4975594;28;20051;-78
2022/10/31 15:40:12;;;;;;;1999.90;999.90;;;15.40;99.90;;;;;;4975660;28;20206;-78
2022/10/31 15:42:42;;;;;;;1999.90;999.90;;;15.30;99.90;;;;;;4975645;28;20453;-78
2022/10/31 15:45:10;;;;;;;1999.90;999.90;;;15.30;99.90;;;;;;4975371;28;20475;-78
2022/10/31 15:47:37;;;;;;;1999.90;999.90;;;14.90;99.90;;;;;;4975691;28;20035;-78
2022/10/31 15:50:12;;;;;;;1999.90;999.90;;;14.90;99.90;;;;;;4975734;28;20039;-78
2022/10/31 15:52:45;;;;;;;1999.90;999.90;;;14.70;99.90;;;;;;4974144;28;20038;-78
2022/10/31 15:55:10;;;;;;;1999.90;999.90;;;14.60;99.90;;;;;;4973446;28;20706;-78
2022/10/31 15:57:51;;;;;;;1999.90;999.90;;;14.40;99.90;;;;;;4985651;28;20135;-78
2022/10/31 16:00:29;;;;;;;1999.90;999.90;;;14.30;99.90;;;;;;4988125;28;20039;-78
2022/10/31 16:03:21;;;;;;;1999.90;999.90;;;14.10;99.90;;;;;;4975057;28;20032;-78
2022/10/31 16:05:50;;;;;;;1999.90;999.90;;;14.00;99.90;;;;;;4976028;28;20375;-78
2022/10/31 16:08:25;;;;;;;1999.90;999.90;;;13.90;99.90;;;;;;4975574;28;20058;-78
2022/10/31 16:10:51;;;;;;;1999.90;999.90;;;13.90;99.90;;;;;;4973788;28;20043;-78
2022/10/31 16:13:17;;;;;;;1999.90;999.90;;;13.80;99.90;;;;;;4975270;28;20035;-77
2022/10/31 16:15:54;;;;;;;1999.90;999.90;;;13.80;99.90;;;;;;4973653;28;20578;-77
2022/10/31 16:18:20;;;;;;;1999.90;999.90;;;13.80;99.90;;;;;;4975112;28;20057;-78
2022/10/31 16:20:52;;;;;;;1999.90;999.90;;;13.80;99.90;;;;;;4975191;28;20046;-78
2022/10/31 16:23:20;;;;;;;1999.90;999.90;;;13.60;99.90;;;;;;4974890;28;20038;-78
2022/10/31 16:25:47;;;;;;;1999.90;999.90;;;13.60;99.90;;;;;;4974916;28;20042;-78
2022/10/31 16:28:32;;;;;;;1999.90;999.90;;;13.70;99.90;;;;;;4975309;28;20039;-78
2022/10/31 16:30:57;;;;;;;1999.90;999.90;;;13.70;99.90;;;;;;4973722;28;20151;-77
2022/10/31 16:33:36;;;;;;;1999.90;999.90;;;13.70;99.90;;;;;;4974695;28;20155;-78
2022/10/31 16:36:31;;;;;;;1999.90;999.90;;;13.50;99.90;;;;;;4974972;28;20505;-78
2022/10/31 16:38:58;;;;;;;1999.90;999.90;;;13.50;99.90;;;;;;4973506;28;20036;-78
2022/10/31 16:41:24;;;;;;;1999.90;999.90;;;13.50;99.90;;;;;;4974901;28;20031;-77
2022/10/31 16:43:51;;;;;;;1999.90;999.90;;;13.60;99.90;;;;;;4974776;28;20035;-78
2022/10/31 16:46:27;;;;;;;1999.90;999.90;;;13.50;99.90;;;;;;4974866;28;20393;-77
2022/10/31 16:48:53;;;;;;;1999.90;999.90;;;13.50;99.90;;;;;;4976853;28;20417;-78
2022/10/31 16:51:19;;;;;;;1999.90;999.90;;;13.50;99.90;;;;;;4977953;28;20055;-77
2022/10/31 16:53:45;;;;;;;1999.90;999.90;;;13.40;99.90;;;;;;4977900;28;20123;-77
2022/10/31 16:56:17;;;;;;;1999.90;999.90;;;13.40;99.90;;;;;;4978122;28;20481;-78
2022/10/31 16:58:43;;;;;;;1999.90;999.90;;;13.40;99.90;;;;;;4978459;28;20114;-77
2022/10/31 17:01:11;;;;;;;1999.90;999.90;;;13.30;99.90;;;;;;4978236;28;20031;-76
2022/10/31 17:03:36;;;;;;;1999.90;999.90;;;13.20;99.90;;;;;;4977947;28;20039;-76
2022/10/31 17:06:02;;;;;;;1999.90;999.90;;;13.20;99.90;;;;;;4977862;28;20502;-76
2022/10/31 17:08:28;;;;;;;1999.90;999.90;;;13.30;99.90;;;;;;4977603;28;20129;-76
2022/10/31 17:10:55;;;;;;;1999.90;999.90;;;13.30;99.90;;;;;;4978346;28;20031;-76
2022/10/31 17:13:28;;;;;;;1999.90;999.90;;;13.30;99.90;;;;;;4977528;28;20051;-76
2022/10/31 17:15:58;;;;;;;1999.90;999.90;;;13.20;99.90;;;;;;4978607;28;20583;-75
2022/10/31 17:18:24;;;;;;;1999.90;999.90;;;13.10;99.90;;;;;;4977876;28;20182;-75
2022/10/31 17:20:50;;;;;;;1999.90;999.90;;;13.10;99.90;;;;;;4978073;28;20063;-77
2022/10/31 17:23:16;;;;;;;1999.90;999.90;;;13.00;99.90;;;;;;4977635;28;20033;-77
2022/10/31 17:25:42;;;;;;;1999.90;999.90;;;12.90;99.90;;;;;;4977637;28;20043;-77
2022/10/31 17:28:13;;;;;;;1999.90;999.90;;;12.80;99.90;;;;;;4977969;28;20437;-77